sensor_id;sensor_type;location;lat;lon;timestamp;P1;durP1;ratioP1;P2;durP2;ratioP2
10825;SDS011;5466;55.898;14.094;2024-01-27T00:00:17;15.05;;;2.63;;
10825;SDS011;5466;55.898;14.094;2024-01-27T00:02:18;7.13;;;2.40;;
10825;SDS011;5466;55.898;14.094;2024-01-27T00:04:18;7.57;;;2.72;;
10825;SDS011;5466;55.898;14.094;2024-01-27T00:06:19;5.35;;;2.10;;
10825;SDS011;5466;55.898;14.094;2024-01-27T00:08:19;12.90;;;2.25;;
10825;SDS011;5466;55.898;14.094;2024-01-27T00:10:21;8.75;;;2.63;;
10825;SDS011;5466;55.898;14.094;2024-01-27T00:12:22;6.78;;;2.15;;
10825;SDS011;5466;55.898;14.094;2024-01-27T00:14:22;11.48;;;2.60;;
10825;SDS011;5466;55.898;14.094;2024-01-27T00:16:23;8.35;;;2.30;;
10825;SDS011;5466;55.898;14.094;2024-01-27T00:18:24;7.75;;;2.10;;
10825;SDS011;5466;55.898;14.094;2024-01-27T00:20:24;6.93;;;2.00;;
10825;SDS011;5466;55.898;14.094;2024-01-27T00:22:26;11.73;;;1.98;;
10825;SDS011;5466;55.898;14.094;2024-01-27T00:24:26;7.47;;;2.10;;
10825;SDS011;5466;55.898;14.094;2024-01-27T00:26:27;7.88;;;2.45;;
10825;SDS011;5466;55.898;14.094;2024-01-27T00:28:28;13.57;;;3.00;;
10825;SDS011;5466;55.898;14.094;2024-01-27T00:30:28;6.13;;;1.95;;
10825;SDS011;5466;55.898;14.094;2024-01-27T00:32:29;9.55;;;2.33;;
10825;SDS011;5466;55.898;14.094;2024-01-27T00:34:30;9.73;;;2.42;;
10825;SDS011;5466;55.898;14.094;2024-01-27T00:36:31;9.65;;;2.50;;
10825;SDS011;5466;55.898;14.094;2024-01-27T00:38:32;10.20;;;2.15;;
10825;SDS011;5466;55.898;14.094;2024-01-27T00:40:35;12.85;;;2.67;;
10825;SDS011;5466;55.898;14.094;2024-01-27T00:42:36;5.10;;;2.00;;
10825;SDS011;5466;55.898;14.094;2024-01-27T00:44:37;8.50;;;2.50;;
10825;SDS011;5466;55.898;14.094;2024-01-27T00:46:38;9.55;;;2.10;;
10825;SDS011;5466;55.898;14.094;2024-01-27T00:48:39;6.00;;;2.00;;
10825;SDS011;5466;55.898;14.094;2024-01-27T00:50:39;9.65;;;2.13;;
10825;SDS011;5466;55.898;14.094;2024-01-27T00:52:40;6.47;;;2.35;;
10825;SDS011;5466;55.898;14.094;2024-01-27T00:54:40;13.80;;;2.70;;
10825;SDS011;5466;55.898;14.094;2024-01-27T00:56:41;11.30;;;2.60;;
10825;SDS011;5466;55.898;14.094;2024-01-27T00:58:42;8.88;;;2.25;;
10825;SDS011;5466;55.898;14.094;2024-01-27T01:00:42;10.00;;;2.30;;
10825;SDS011;5466;55.898;14.094;2024-01-27T01:02:43;10.32;;;2.63;;
10825;SDS011;5466;55.898;14.094;2024-01-27T01:04:43;15.68;;;2.92;;
10825;SDS011;5466;55.898;14.094;2024-01-27T01:06:45;8.60;;;2.30;;
10825;SDS011;5466;55.898;14.094;2024-01-27T01:08:45;10.32;;;2.33;;
10825;SDS011;5466;55.898;14.094;2024-01-27T01:10:46;8.15;;;2.80;;
10825;SDS011;5466;55.898;14.094;2024-01-27T01:12:46;6.97;;;3.03;;
10825;SDS011;5466;55.898;14.094;2024-01-27T01:14:47;11.35;;;2.90;;
10825;SDS011;5466;55.898;14.094;2024-01-27T01:16:48;10.27;;;2.88;;
10825;SDS011;5466;55.898;14.094;2024-01-27T01:18:48;13.00;;;2.33;;
10825;SDS011;5466;55.898;14.094;2024-01-27T01:20:49;11.77;;;3.00;;
10825;SDS011;5466;55.898;14.094;2024-01-27T01:22:50;11.57;;;2.92;;
10825;SDS011;5466;55.898;14.094;2024-01-27T01:24:50;9.65;;;2.63;;
10825;SDS011;5466;55.898;14.094;2024-01-27T01:26:51;7.20;;;2.17;;
10825;SDS011;5466;55.898;14.094;2024-01-27T01:28:51;10.82;;;2.75;;
10825;SDS011;5466;55.898;14.094;2024-01-27T01:30:52;10.10;;;3.03;;
10825;SDS011;5466;55.898;14.094;2024-01-27T01:32:52;9.70;;;2.78;;
10825;SDS011;5466;55.898;14.094;2024-01-27T01:34:53;12.20;;;2.80;;
10825;SDS011;5466;55.898;14.094;2024-01-27T01:36:54;13.23;;;3.63;;
10825;SDS011;5466;55.898;14.094;2024-01-27T01:38:54;10.07;;;2.42;;
10825;SDS011;5466;55.898;14.094;2024-01-27T01:40:55;4.43;;;1.50;;
10825;SDS011;5466;55.898;14.094;2024-01-27T01:42:56;13.68;;;3.10;;
10825;SDS011;5466;55.898;14.094;2024-01-27T01:44:58;7.75;;;2.20;;
10825;SDS011;5466;55.898;14.094;2024-01-27T01:46:58;11.88;;;3.25;;
10825;SDS011;5466;55.898;14.094;2024-01-27T01:48:59;11.82;;;3.10;;
10825;SDS011;5466;55.898;14.094;2024-01-27T01:51:00;13.98;;;2.72;;
10825;SDS011;5466;55.898;14.094;2024-01-27T01:53:01;15.73;;;3.05;;
10825;SDS011;5466;55.898;14.094;2024-01-27T01:55:03;7.40;;;2.35;;
10825;SDS011;5466;55.898;14.094;2024-01-27T01:57:05;8.10;;;2.17;;
10825;SDS011;5466;55.898;14.094;2024-01-27T01:59:06;12.82;;;3.15;;
10825;SDS011;5466;55.898;14.094;2024-01-27T02:01:06;16.65;;;3.17;;
10825;SDS011;5466;55.898;14.094;2024-01-27T02:03:13;12.85;;;2.67;;
10825;SDS011;5466;55.898;14.094;2024-01-27T02:05:14;11.43;;;2.97;;
10825;SDS011;5466;55.898;14.094;2024-01-27T02:07:15;8.98;;;2.33;;
10825;SDS011;5466;55.898;14.094;2024-01-27T02:09:16;11.02;;;2.80;;
10825;SDS011;5466;55.898;14.094;2024-01-27T02:11:16;14.43;;;3.15;;
10825;SDS011;5466;55.898;14.094;2024-01-27T02:13:18;13.70;;;3.00;;
10825;SDS011;5466;55.898;14.094;2024-01-27T02:15:20;10.07;;;2.97;;
10825;SDS011;5466;55.898;14.094;2024-01-27T02:17:21;12.23;;;3.75;;
10825;SDS011;5466;55.898;14.094;2024-01-27T02:19:22;14.68;;;3.88;;
10825;SDS011;5466;55.898;14.094;2024-01-27T02:21:23;11.30;;;2.83;;
10825;SDS011;5466;55.898;14.094;2024-01-27T02:23:24;16.02;;;3.47;;
10825;SDS011;5466;55.898;14.094;2024-01-27T02:25:25;13.07;;;3.30;;
10825;SDS011;5466;55.898;14.094;2024-01-27T02:27:25;15.02;;;3.03;;
10825;SDS011;5466;55.898;14.094;2024-01-27T02:29:26;13.35;;;2.70;;
10825;SDS011;5466;55.898;14.094;2024-01-27T02:31:28;14.65;;;3.35;;
10825;SDS011;5466;55.898;14.094;2024-01-27T02:33:29;14.38;;;3.00;;
10825;SDS011;5466;55.898;14.094;2024-01-27T02:35:30;10.82;;;2.80;;
10825;SDS011;5466;55.898;14.094;2024-01-27T02:37:31;13.73;;;3.28;;
10825;SDS011;5466;55.898;14.094;2024-01-27T02:39:31;12.40;;;3.03;;
10825;SDS011;5466;55.898;14.094;2024-01-27T02:41:32;17.17;;;3.33;;
10825;SDS011;5466;55.898;14.094;2024-01-27T02:43:38;14.23;;;2.88;;
10825;SDS011;5466;55.898;14.094;2024-01-27T02:45:39;11.45;;;3.00;;
10825;SDS011;5466;55.898;14.094;2024-01-27T02:47:39;15.18;;;3.47;;
10825;SDS011;5466;55.898;14.094;2024-01-27T02:49:40;9.20;;;2.75;;
10825;SDS011;5466;55.898;14.094;2024-01-27T02:51:41;13.70;;;3.45;;
10825;SDS011;5466;55.898;14.094;2024-01-27T02:53:41;14.20;;;3.60;;
10825;SDS011;5466;55.898;14.094;2024-01-27T02:55:42;11.10;;;2.78;;
10825;SDS011;5466;55.898;14.094;2024-01-27T02:57:43;8.75;;;2.35;;
10825;SDS011;5466;55.898;14.094;2024-01-27T02:59:47;11.75;;;3.65;;
10825;SDS011;5466;55.898;14.094;2024-01-27T03:01:47;12.85;;;2.33;;
10825;SDS011;5466;55.898;14.094;2024-01-27T03:03:48;9.70;;;3.15;;
10825;SDS011;5466;55.898;14.094;2024-01-27T03:05:48;11.85;;;2.92;;
10825;SDS011;5466;55.898;14.094;2024-01-27T03:07:49;12.60;;;3.42;;
10825;SDS011;5466;55.898;14.094;2024-01-27T03:09:49;14.52;;;3.05;;
10825;SDS011;5466;55.898;14.094;2024-01-27T03:11:50;10.07;;;2.75;;
10825;SDS011;5466;55.898;14.094;2024-01-27T03:13:51;12.55;;;3.25;;
10825;SDS011;5466;55.898;14.094;2024-01-27T03:15:51;10.30;;;3.05;;
10825;SDS011;5466;55.898;14.094;2024-01-27T03:17:52;15.43;;;3.30;;
10825;SDS011;5466;55.898;14.094;2024-01-27T03:19:53;9.02;;;2.53;;
10825;SDS011;5466;55.898;14.094;2024-01-27T03:21:53;8.82;;;2.50;;
10825;SDS011;5466;55.898;14.094;2024-01-27T03:23:54;10.93;;;3.45;;
10825;SDS011;5466;55.898;14.094;2024-01-27T03:25:55;10.52;;;3.08;;
10825;SDS011;5466;55.898;14.094;2024-01-27T03:27:55;12.45;;;2.70;;
10825;SDS011;5466;55.898;14.094;2024-01-27T03:29:58;11.15;;;2.65;;
10825;SDS011;5466;55.898;14.094;2024-01-27T03:32:00;12.95;;;2.90;;
10825;SDS011;5466;55.898;14.094;2024-01-27T03:34:01;10.30;;;2.47;;
10825;SDS011;5466;55.898;14.094;2024-01-27T03:36:02;14.38;;;3.17;;
10825;SDS011;5466;55.898;14.094;2024-01-27T03:38:03;9.63;;;2.97;;
10825;SDS011;5466;55.898;14.094;2024-01-27T03:40:05;12.00;;;3.30;;
10825;SDS011;5466;55.898;14.094;2024-01-27T03:42:06;12.77;;;2.55;;
10825;SDS011;5466;55.898;14.094;2024-01-27T03:44:07;11.55;;;2.40;;
10825;SDS011;5466;55.898;14.094;2024-01-27T03:46:07;7.63;;;2.20;;
10825;SDS011;5466;55.898;14.094;2024-01-27T03:48:08;9.02;;;2.83;;
10825;SDS011;5466;55.898;14.094;2024-01-27T03:50:09;17.73;;;3.75;;
10825;SDS011;5466;55.898;14.094;2024-01-27T03:52:11;13.00;;;2.78;;
10825;SDS011;5466;55.898;14.094;2024-01-27T03:54:11;15.18;;;3.38;;
10825;SDS011;5466;55.898;14.094;2024-01-27T03:56:12;11.57;;;2.75;;
10825;SDS011;5466;55.898;14.094;2024-01-27T03:58:13;13.10;;;3.20;;
10825;SDS011;5466;55.898;14.094;2024-01-27T04:00:14;14.68;;;2.80;;
10825;SDS011;5466;55.898;14.094;2024-01-27T04:02:14;11.93;;;3.03;;
10825;SDS011;5466;55.898;14.094;2024-01-27T04:04:15;13.57;;;2.65;;
10825;SDS011;5466;55.898;14.094;2024-01-27T04:06:16;12.77;;;2.85;;
10825;SDS011;5466;55.898;14.094;2024-01-27T04:08:16;20.17;;;3.05;;
10825;SDS011;5466;55.898;14.094;2024-01-27T04:10:17;15.30;;;3.20;;
10825;SDS011;5466;55.898;14.094;2024-01-27T04:12:18;12.18;;;2.70;;
10825;SDS011;5466;55.898;14.094;2024-01-27T04:14:19;19.20;;;3.28;;
10825;SDS011;5466;55.898;14.094;2024-01-27T04:16:19;21.40;;;3.42;;
10825;SDS011;5466;55.898;14.094;2024-01-27T04:18:20;11.02;;;2.90;;
10825;SDS011;5466;55.898;14.094;2024-01-27T04:20:21;16.35;;;2.92;;
10825;SDS011;5466;55.898;14.094;2024-01-27T04:22:21;17.42;;;3.78;;
10825;SDS011;5466;55.898;14.094;2024-01-27T04:24:22;19.63;;;3.45;;
10825;SDS011;5466;55.898;14.094;2024-01-27T04:26:22;11.07;;;3.30;;
10825;SDS011;5466;55.898;14.094;2024-01-27T04:28:23;14.75;;;3.53;;
10825;SDS011;5466;55.898;14.094;2024-01-27T04:30:24;18.27;;;3.83;;
10825;SDS011;5466;55.898;14.094;2024-01-27T04:32:24;18.00;;;3.85;;
10825;SDS011;5466;55.898;14.094;2024-01-27T04:34:26;13.67;;;3.30;;
10825;SDS011;5466;55.898;14.094;2024-01-27T04:36:29;15.63;;;4.43;;
10825;SDS011;5466;55.898;14.094;2024-01-27T04:38:30;12.00;;;3.30;;
10825;SDS011;5466;55.898;14.094;2024-01-27T04:40:31;18.23;;;4.15;;
10825;SDS011;5466;55.898;14.094;2024-01-27T04:42:42;15.73;;;3.45;;
10825;SDS011;5466;55.898;14.094;2024-01-27T04:44:42;14.88;;;3.33;;
10825;SDS011;5466;55.898;14.094;2024-01-27T04:46:43;10.70;;;2.90;;
10825;SDS011;5466;55.898;14.094;2024-01-27T04:48:43;12.02;;;2.88;;
10825;SDS011;5466;55.898;14.094;2024-01-27T04:50:44;10.38;;;2.88;;
10825;SDS011;5466;55.898;14.094;2024-01-27T04:52:45;16.40;;;3.50;;
10825;SDS011;5466;55.898;14.094;2024-01-27T04:54:46;16.07;;;3.83;;
10825;SDS011;5466;55.898;14.094;2024-01-27T04:56:46;15.95;;;4.13;;
10825;SDS011;5466;55.898;14.094;2024-01-27T04:58:47;19.15;;;4.25;;
10825;SDS011;5466;55.898;14.094;2024-01-27T05:00:48;15.60;;;3.55;;
10825;SDS011;5466;55.898;14.094;2024-01-27T05:02:48;14.10;;;3.22;;
10825;SDS011;5466;55.898;14.094;2024-01-27T05:04:49;18.27;;;4.43;;
10825;SDS011;5466;55.898;14.094;2024-01-27T05:06:49;18.90;;;4.38;;
10825;SDS011;5466;55.898;14.094;2024-01-27T05:08:50;17.45;;;3.78;;
10825;SDS011;5466;55.898;14.094;2024-01-27T05:10:51;25.35;;;5.93;;
10825;SDS011;5466;55.898;14.094;2024-01-27T05:12:51;22.37;;;3.50;;
10825;SDS011;5466;55.898;14.094;2024-01-27T05:14:52;22.00;;;3.88;;
10825;SDS011;5466;55.898;14.094;2024-01-27T05:16:53;16.83;;;3.60;;
10825;SDS011;5466;55.898;14.094;2024-01-27T05:18:53;13.47;;;3.70;;
10825;SDS011;5466;55.898;14.094;2024-01-27T05:20:54;20.13;;;4.45;;
10825;SDS011;5466;55.898;14.094;2024-01-27T05:22:54;13.43;;;3.53;;
10825;SDS011;5466;55.898;14.094;2024-01-27T05:24:55;20.33;;;3.83;;
10825;SDS011;5466;55.898;14.094;2024-01-27T05:26:56;20.42;;;4.68;;
10825;SDS011;5466;55.898;14.094;2024-01-27T05:28:56;19.77;;;4.57;;
10825;SDS011;5466;55.898;14.094;2024-01-27T05:30:57;22.92;;;4.75;;
10825;SDS011;5466;55.898;14.094;2024-01-27T05:32:58;25.97;;;5.07;;
10825;SDS011;5466;55.898;14.094;2024-01-27T05:34:58;18.73;;;4.10;;
10825;SDS011;5466;55.898;14.094;2024-01-27T05:36:59;17.20;;;4.07;;
10825;SDS011;5466;55.898;14.094;2024-01-27T05:39:00;22.38;;;4.25;;
10825;SDS011;5466;55.898;14.094;2024-01-27T05:41:01;25.95;;;4.70;;
10825;SDS011;5466;55.898;14.094;2024-01-27T05:43:02;20.80;;;4.90;;
10825;SDS011;5466;55.898;14.094;2024-01-27T05:45:02;18.20;;;4.13;;
10825;SDS011;5466;55.898;14.094;2024-01-27T05:47:06;21.43;;;5.77;;
10825;SDS011;5466;55.898;14.094;2024-01-27T05:49:07;24.58;;;4.90;;
10825;SDS011;5466;55.898;14.094;2024-01-27T05:51:08;19.08;;;3.88;;
10825;SDS011;5466;55.898;14.094;2024-01-27T05:53:08;19.73;;;4.33;;
10825;SDS011;5466;55.898;14.094;2024-01-27T05:55:09;27.97;;;5.57;;
10825;SDS011;5466;55.898;14.094;2024-01-27T05:57:11;34.20;;;4.97;;
10825;SDS011;5466;55.898;14.094;2024-01-27T05:59:12;21.00;;;4.97;;
10825;SDS011;5466;55.898;14.094;2024-01-27T06:01:12;23.23;;;4.40;;
10825;SDS011;5466;55.898;14.094;2024-01-27T06:03:13;23.40;;;5.60;;
10825;SDS011;5466;55.898;14.094;2024-01-27T06:05:15;30.30;;;5.23;;
10825;SDS011;5466;55.898;14.094;2024-01-27T06:07:15;23.37;;;3.97;;
10825;SDS011;5466;55.898;14.094;2024-01-27T06:09:16;24.80;;;4.85;;
10825;SDS011;5466;55.898;14.094;2024-01-27T06:11:26;22.55;;;4.40;;
10825;SDS011;5466;55.898;14.094;2024-01-27T06:13:26;18.92;;;4.40;;
10825;SDS011;5466;55.898;14.094;2024-01-27T06:15:27;19.63;;;4.88;;
10825;SDS011;5466;55.898;14.094;2024-01-27T06:17:28;27.90;;;5.00;;
10825;SDS011;5466;55.898;14.094;2024-01-27T06:19:28;22.83;;;4.68;;
10825;SDS011;5466;55.898;14.094;2024-01-27T06:21:29;27.67;;;4.82;;
10825;SDS011;5466;55.898;14.094;2024-01-27T06:23:30;23.47;;;4.97;;
10825;SDS011;5466;55.898;14.094;2024-01-27T06:25:30;21.95;;;4.55;;
10825;SDS011;5466;55.898;14.094;2024-01-27T06:27:31;26.60;;;4.70;;
10825;SDS011;5466;55.898;14.094;2024-01-27T06:29:32;27.45;;;5.50;;
10825;SDS011;5466;55.898;14.094;2024-01-27T06:31:33;27.00;;;4.10;;
10825;SDS011;5466;55.898;14.094;2024-01-27T06:33:36;27.93;;;5.53;;
10825;SDS011;5466;55.898;14.094;2024-01-27T06:35:37;21.15;;;4.95;;
10825;SDS011;5466;55.898;14.094;2024-01-27T06:37:38;22.73;;;4.43;;
10825;SDS011;5466;55.898;14.094;2024-01-27T06:39:38;19.93;;;4.47;;
10825;SDS011;5466;55.898;14.094;2024-01-27T06:41:39;27.70;;;4.73;;
10825;SDS011;5466;55.898;14.094;2024-01-27T06:43:39;19.93;;;4.80;;
10825;SDS011;5466;55.898;14.094;2024-01-27T06:45:40;24.83;;;4.87;;
10825;SDS011;5466;55.898;14.094;2024-01-27T06:47:41;22.60;;;4.47;;
10825;SDS011;5466;55.898;14.094;2024-01-27T06:49:41;22.97;;;4.90;;
10825;SDS011;5466;55.898;14.094;2024-01-27T06:51:43;21.83;;;3.97;;
10825;SDS011;5466;55.898;14.094;2024-01-27T06:53:44;19.60;;;5.13;;
10825;SDS011;5466;55.898;14.094;2024-01-27T06:55:45;34.03;;;5.33;;
10825;SDS011;5466;55.898;14.094;2024-01-27T06:57:45;28.90;;;5.40;;
10825;SDS011;5466;55.898;14.094;2024-01-27T06:59:47;35.90;;;6.07;;
10825;SDS011;5466;55.898;14.094;2024-01-27T07:01:52;23.63;;;4.10;;
10825;SDS011;5466;55.898;14.094;2024-01-27T07:03:52;24.27;;;5.10;;
10825;SDS011;5466;55.898;14.094;2024-01-27T07:05:53;27.40;;;6.10;;
10825;SDS011;5466;55.898;14.094;2024-01-27T07:07:54;22.77;;;6.50;;
10825;SDS011;5466;55.898;14.094;2024-01-27T07:09:55;18.37;;;4.63;;
10825;SDS011;5466;55.898;14.094;2024-01-27T07:11:56;25.90;;;5.10;;
10825;SDS011;5466;55.898;14.094;2024-01-27T07:13:57;18.43;;;4.27;;
10825;SDS011;5466;55.898;14.094;2024-01-27T07:15:58;24.03;;;5.47;;
10825;SDS011;5466;55.898;14.094;2024-01-27T07:17:59;32.80;;;5.33;;
10825;SDS011;5466;55.898;14.094;2024-01-27T07:20:00;23.63;;;5.37;;
10825;SDS011;5466;55.898;14.094;2024-01-27T07:22:00;32.67;;;5.63;;
10825;SDS011;5466;55.898;14.094;2024-01-27T07:24:01;22.00;;;4.83;;
10825;SDS011;5466;55.898;14.094;2024-01-27T07:26:03;21.03;;;4.63;;
10825;SDS011;5466;55.898;14.094;2024-01-27T07:28:04;25.67;;;5.00;;
10825;SDS011;5466;55.898;14.094;2024-01-27T07:30:05;29.05;;;5.22;;
10825;SDS011;5466;55.898;14.094;2024-01-27T07:32:08;21.03;;;5.00;;
10825;SDS011;5466;55.898;14.094;2024-01-27T07:34:13;29.42;;;4.93;;
10825;SDS011;5466;55.898;14.094;2024-01-27T07:36:13;26.75;;;5.93;;
10825;SDS011;5466;55.898;14.094;2024-01-27T07:38:14;28.03;;;5.20;;
10825;SDS011;5466;55.898;14.094;2024-01-27T07:40:14;30.58;;;5.00;;
10825;SDS011;5466;55.898;14.094;2024-01-27T07:42:15;21.45;;;5.07;;
10825;SDS011;5466;55.898;14.094;2024-01-27T07:44:17;30.63;;;5.33;;
10825;SDS011;5466;55.898;14.094;2024-01-27T07:46:18;21.67;;;5.20;;
10825;SDS011;5466;55.898;14.094;2024-01-27T07:48:21;23.40;;;4.67;;
10825;SDS011;5466;55.898;14.094;2024-01-27T07:50:22;28.48;;;5.18;;
10825;SDS011;5466;55.898;14.094;2024-01-27T07:52:23;32.60;;;5.00;;
10825;SDS011;5466;55.898;14.094;2024-01-27T07:54:24;23.90;;;5.47;;
10825;SDS011;5466;55.898;14.094;2024-01-27T07:56:25;24.33;;;4.67;;
10825;SDS011;5466;55.898;14.094;2024-01-27T07:58:25;23.73;;;5.67;;
10825;SDS011;5466;55.898;14.094;2024-01-27T08:00:26;22.20;;;4.40;;
10825;SDS011;5466;55.898;14.094;2024-01-27T08:02:27;21.30;;;4.43;;
10825;SDS011;5466;55.898;14.094;2024-01-27T08:04:27;19.70;;;4.63;;
10825;SDS011;5466;55.898;14.094;2024-01-27T08:06:28;25.27;;;5.30;;
10825;SDS011;5466;55.898;14.094;2024-01-27T08:08:30;22.17;;;4.63;;
10825;SDS011;5466;55.898;14.094;2024-01-27T08:10:30;32.38;;;5.05;;
10825;SDS011;5466;55.898;14.094;2024-01-27T08:12:31;26.23;;;4.43;;
10825;SDS011;5466;55.898;14.094;2024-01-27T08:14:32;29.10;;;5.53;;
10825;SDS011;5466;55.898;14.094;2024-01-27T08:16:35;27.20;;;5.68;;
10825;SDS011;5466;55.898;14.094;2024-01-27T08:18:36;35.93;;;6.03;;
10825;SDS011;5466;55.898;14.094;2024-01-27T08:20:36;23.67;;;5.30;;
10825;SDS011;5466;55.898;14.094;2024-01-27T08:22:37;29.33;;;5.28;;
10825;SDS011;5466;55.898;14.094;2024-01-27T08:24:38;23.10;;;4.70;;
10825;SDS011;5466;55.898;14.094;2024-01-27T08:26:38;19.80;;;4.28;;
10825;SDS011;5466;55.898;14.094;2024-01-27T08:28:39;39.72;;;5.80;;
10825;SDS011;5466;55.898;14.094;2024-01-27T08:30:40;25.02;;;5.32;;
10825;SDS011;5466;55.898;14.094;2024-01-27T08:32:41;24.13;;;4.43;;
10825;SDS011;5466;55.898;14.094;2024-01-27T08:34:41;18.42;;;4.80;;
10825;SDS011;5466;55.898;14.094;2024-01-27T08:36:42;20.95;;;3.78;;
10825;SDS011;5466;55.898;14.094;2024-01-27T08:38:42;26.98;;;5.72;;
10825;SDS011;5466;55.898;14.094;2024-01-27T08:40:43;25.63;;;4.53;;
10825;SDS011;5466;55.898;14.094;2024-01-27T08:42:44;20.40;;;4.45;;
10825;SDS011;5466;55.898;14.094;2024-01-27T08:44:44;29.25;;;4.85;;
10825;SDS011;5466;55.898;14.094;2024-01-27T08:46:45;27.98;;;4.88;;
10825;SDS011;5466;55.898;14.094;2024-01-27T08:48:46;25.70;;;6.78;;
10825;SDS011;5466;55.898;14.094;2024-01-27T08:50:46;20.13;;;4.85;;
10825;SDS011;5466;55.898;14.094;2024-01-27T08:52:47;34.97;;;6.43;;
10825;SDS011;5466;55.898;14.094;2024-01-27T08:54:48;22.90;;;5.03;;
10825;SDS011;5466;55.898;14.094;2024-01-27T08:56:49;32.60;;;4.97;;
10825;SDS011;5466;55.898;14.094;2024-01-27T08:58:50;25.58;;;5.20;;
10825;SDS011;5466;55.898;14.094;2024-01-27T09:00:52;33.50;;;5.30;;
10825;SDS011;5466;55.898;14.094;2024-01-27T09:02:53;22.27;;;5.07;;
10825;SDS011;5466;55.898;14.094;2024-01-27T09:04:55;31.55;;;6.75;;
10825;SDS011;5466;55.898;14.094;2024-01-27T09:06:56;35.63;;;5.85;;
10825;SDS011;5466;55.898;14.094;2024-01-27T09:08:56;20.45;;;4.57;;
10825;SDS011;5466;55.898;14.094;2024-01-27T09:10:57;22.73;;;5.57;;
10825;SDS011;5466;55.898;14.094;2024-01-27T09:12:57;24.48;;;4.40;;
10825;SDS011;5466;55.898;14.094;2024-01-27T09:14:58;21.35;;;4.93;;
10825;SDS011;5466;55.898;14.094;2024-01-27T09:16:59;21.52;;;4.80;;
10825;SDS011;5466;55.898;14.094;2024-01-27T09:19:00;21.25;;;5.20;;
10825;SDS011;5466;55.898;14.094;2024-01-27T09:21:01;24.58;;;5.35;;
10825;SDS011;5466;55.898;14.094;2024-01-27T09:23:02;29.00;;;4.53;;
10825;SDS011;5466;55.898;14.094;2024-01-27T09:25:03;19.77;;;4.63;;
10825;SDS011;5466;55.898;14.094;2024-01-27T09:27:04;29.90;;;6.13;;
10825;SDS011;5466;55.898;14.094;2024-01-27T09:29:06;31.02;;;6.38;;
10825;SDS011;5466;55.898;14.094;2024-01-27T09:31:08;30.33;;;5.57;;
10825;SDS011;5466;55.898;14.094;2024-01-27T09:33:12;28.02;;;5.13;;
10825;SDS011;5466;55.898;14.094;2024-01-27T09:35:13;26.88;;;4.82;;
10825;SDS011;5466;55.898;14.094;2024-01-27T09:37:14;18.17;;;4.22;;
10825;SDS011;5466;55.898;14.094;2024-01-27T09:39:14;33.40;;;5.95;;
10825;SDS011;5466;55.898;14.094;2024-01-27T09:41:15;27.27;;;5.57;;
10825;SDS011;5466;55.898;14.094;2024-01-27T09:43:16;19.67;;;4.75;;
10825;SDS011;5466;55.898;14.094;2024-01-27T09:45:22;30.25;;;5.28;;
10825;SDS011;5466;55.898;14.094;2024-01-27T09:47:23;23.90;;;5.25;;
10825;SDS011;5466;55.898;14.094;2024-01-27T09:49:24;26.58;;;6.07;;
10825;SDS011;5466;55.898;14.094;2024-01-27T09:51:27;32.53;;;6.38;;
10825;SDS011;5466;55.898;14.094;2024-01-27T09:53:28;35.55;;;6.10;;
10825;SDS011;5466;55.898;14.094;2024-01-27T09:55:28;35.33;;;7.00;;
10825;SDS011;5466;55.898;14.094;2024-01-27T09:57:29;30.88;;;5.90;;
10825;SDS011;5466;55.898;14.094;2024-01-27T09:59:30;27.83;;;6.15;;
10825;SDS011;5466;55.898;14.094;2024-01-27T10:01:33;24.70;;;6.07;;
10825;SDS011;5466;55.898;14.094;2024-01-27T10:03:36;30.95;;;6.05;;
10825;SDS011;5466;55.898;14.094;2024-01-27T10:05:41;37.97;;;6.68;;
10825;SDS011;5466;55.898;14.094;2024-01-27T10:07:42;19.08;;;5.50;;
10825;SDS011;5466;55.898;14.094;2024-01-27T10:09:42;21.52;;;4.70;;
10825;SDS011;5466;55.898;14.094;2024-01-27T10:11:45;19.23;;;4.57;;
10825;SDS011;5466;55.898;14.094;2024-01-27T10:13:54;26.92;;;5.05;;
10825;SDS011;5466;55.898;14.094;2024-01-27T10:16:02;25.45;;;5.32;;
10825;SDS011;5466;55.898;14.094;2024-01-27T10:18:07;23.25;;;4.53;;
10825;SDS011;5466;55.898;14.094;2024-01-27T10:20:08;20.98;;;4.50;;
10825;SDS011;5466;55.898;14.094;2024-01-27T10:22:10;26.40;;;4.88;;
10825;SDS011;5466;55.898;14.094;2024-01-27T10:24:10;31.60;;;7.55;;
10825;SDS011;5466;55.898;14.094;2024-01-27T10:26:11;25.42;;;5.65;;
10825;SDS011;5466;55.898;14.094;2024-01-27T10:28:12;25.02;;;6.13;;
10825;SDS011;5466;55.898;14.094;2024-01-27T10:30:14;21.42;;;5.35;;
10825;SDS011;5466;55.898;14.094;2024-01-27T10:32:17;22.85;;;5.38;;
10825;SDS011;5466;55.898;14.094;2024-01-27T10:34:20;27.88;;;5.78;;
10825;SDS011;5466;55.898;14.094;2024-01-27T10:36:21;22.75;;;4.28;;
10825;SDS011;5466;55.898;14.094;2024-01-27T10:38:22;21.35;;;4.30;;
10825;SDS011;5466;55.898;14.094;2024-01-27T10:40:37;18.35;;;4.07;;
10825;SDS011;5466;55.898;14.094;2024-01-27T10:42:38;26.25;;;5.03;;
10825;SDS011;5466;55.898;14.094;2024-01-27T10:44:38;24.08;;;5.22;;
10825;SDS011;5466;55.898;14.094;2024-01-27T10:46:45;25.40;;;5.10;;
10825;SDS011;5466;55.898;14.094;2024-01-27T10:48:50;21.77;;;4.90;;
10825;SDS011;5466;55.898;14.094;2024-01-27T10:50:52;23.38;;;4.32;;
10825;SDS011;5466;55.898;14.094;2024-01-27T10:52:53;26.83;;;5.45;;
10825;SDS011;5466;55.898;14.094;2024-01-27T10:54:59;17.30;;;4.53;;
10825;SDS011;5466;55.898;14.094;2024-01-27T10:57:01;19.95;;;5.30;;
10825;SDS011;5466;55.898;14.094;2024-01-27T10:59:02;26.45;;;4.82;;
10825;SDS011;5466;55.898;14.094;2024-01-27T11:01:05;22.80;;;5.18;;
10825;SDS011;5466;55.898;14.094;2024-01-27T11:03:09;21.55;;;5.68;;
10825;SDS011;5466;55.898;14.094;2024-01-27T11:05:11;20.00;;;4.40;;
10825;SDS011;5466;55.898;14.094;2024-01-27T11:07:14;22.05;;;4.82;;
10825;SDS011;5466;55.898;14.094;2024-01-27T11:09:14;28.52;;;5.40;;
10825;SDS011;5466;55.898;14.094;2024-01-27T11:11:16;23.33;;;4.82;;
10825;SDS011;5466;55.898;14.094;2024-01-27T11:13:17;19.73;;;5.15;;
10825;SDS011;5466;55.898;14.094;2024-01-27T11:15:18;15.52;;;4.10;;
10825;SDS011;5466;55.898;14.094;2024-01-27T11:17:19;24.95;;;4.45;;
10825;SDS011;5466;55.898;14.094;2024-01-27T11:19:20;23.13;;;4.63;;
10825;SDS011;5466;55.898;14.094;2024-01-27T11:21:22;28.48;;;4.78;;
10825;SDS011;5466;55.898;14.094;2024-01-27T11:23:30;22.65;;;4.30;;
10825;SDS011;5466;55.898;14.094;2024-01-27T11:25:32;25.08;;;5.20;;
10825;SDS011;5466;55.898;14.094;2024-01-27T11:27:32;26.40;;;5.00;;
10825;SDS011;5466;55.898;14.094;2024-01-27T11:29:33;22.48;;;4.40;;
10825;SDS011;5466;55.898;14.094;2024-01-27T11:31:36;25.55;;;5.20;;
10825;SDS011;5466;55.898;14.094;2024-01-27T11:33:41;25.15;;;4.30;;
10825;SDS011;5466;55.898;14.094;2024-01-27T11:35:43;21.58;;;4.68;;
10825;SDS011;5466;55.898;14.094;2024-01-27T11:37:44;27.08;;;4.90;;
10825;SDS011;5466;55.898;14.094;2024-01-27T11:39:44;18.80;;;4.03;;
10825;SDS011;5466;55.898;14.094;2024-01-27T11:41:45;16.08;;;3.85;;
10825;SDS011;5466;55.898;14.094;2024-01-27T11:43:58;16.45;;;4.43;;
10825;SDS011;5466;55.898;14.094;2024-01-27T11:46:02;23.55;;;4.78;;
10825;SDS011;5466;55.898;14.094;2024-01-27T11:48:03;17.77;;;4.22;;
10825;SDS011;5466;55.898;14.094;2024-01-27T11:50:04;19.50;;;4.68;;
10825;SDS011;5466;55.898;14.094;2024-01-27T11:52:06;17.20;;;3.60;;
10825;SDS011;5466;55.898;14.094;2024-01-27T11:54:07;22.23;;;3.95;;
10825;SDS011;5466;55.898;14.094;2024-01-27T11:56:07;20.23;;;4.40;;
10825;SDS011;5466;55.898;14.094;2024-01-27T11:58:08;20.23;;;4.18;;
10825;SDS011;5466;55.898;14.094;2024-01-27T12:00:09;19.98;;;4.68;;